sensor_id;sensor_type;location;lat;lon;timestamp;temperature;humidity
9179;DHT22;4624;48.126;11.546;2023-03-31T00:00:57;9.60;99.90
9179;DHT22;4624;48.126;11.546;2023-03-31T00:03:25;9.50;99.90
9179;DHT22;4624;48.126;11.546;2023-03-31T00:05:54;9.50;99.90
9179;DHT22;4624;48.126;11.546;2023-03-31T00:08:22;9.50;99.90
9179;DHT22;4624;48.126;11.546;2023-03-31T00:10:49;9.50;99.90
9179;DHT22;4624;48.126;11.546;2023-03-31T00:13:17;9.50;99.90
9179;DHT22;4624;48.126;11.546;2023-03-31T00:15:44;9.50;99.90
9179;DHT22;4624;48.126;11.546;2023-03-31T00:18:11;9.50;99.90
9179;DHT22;4624;48.126;11.546;2023-03-31T00:20:38;9.50;99.90
9179;DHT22;4624;48.126;11.546;2023-03-31T00:23:07;9.50;99.90
9179;DHT22;4624;48.126;11.546;2023-03-31T00:25:38;9.60;99.90
9179;DHT22;4624;48.126;11.546;2023-03-31T00:28:05;9.60;99.90
9179;DHT22;4624;48.126;11.546;2023-03-31T00:30:33;9.70;99.90
9179;DHT22;4624;48.126;11.546;2023-03-31T00:33:00;9.70;99.90
9179;DHT22;4624;48.126;11.546;2023-03-31T00:35:27;9.70;99.90
9179;DHT22;4624;48.126;11.546;2023-03-31T00:37:53;9.80;99.90
9179;DHT22;4624;48.126;11.546;2023-03-31T00:40:22;9.80;99.90
9179;DHT22;4624;48.126;11.546;2023-03-31T00:42:49;9.80;99.90
9179;DHT22;4624;48.126;11.546;2023-03-31T00:45:26;9.80;99.90
9179;DHT22;4624;48.126;11.546;2023-03-31T00:48:00;9.80;99.90
9179;DHT22;4624;48.126;11.546;2023-03-31T00:50:31;9.80;99.90
9179;DHT22;4624;48.126;11.546;2023-03-31T00:52:59;9.90;99.90
9179;DHT22;4624;48.126;11.546;2023-03-31T00:55:30;10.00;99.90
9179;DHT22;4624;48.126;11.546;2023-03-31T00:57:58;10.00;99.90
9179;DHT22;4624;48.126;11.546;2023-03-31T01:00:29;10.00;99.90
9179;DHT22;4624;48.126;11.546;2023-03-31T01:03:01;10.00;99.90
9179;DHT22;4624;48.126;11.546;2023-03-31T01:05:33;10.00;99.90
9179;DHT22;4624;48.126;11.546;2023-03-31T01:08:03;10.10;99.90
9179;DHT22;4624;48.126;11.546;2023-03-31T01:10:34;10.10;99.90
9179;DHT22;4624;48.126;11.546;2023-03-31T01:13:07;10.10;99.90
9179;DHT22;4624;48.126;11.546;2023-03-31T01:15:35;10.10;99.90
9179;DHT22;4624;48.126;11.546;2023-03-31T01:18:04;10.10;99.90
9179;DHT22;4624;48.126;11.546;2023-03-31T01:20:35;10.10;99.90
9179;DHT22;4624;48.126;11.546;2023-03-31T01:23:30;10.10;99.90
9179;DHT22;4624;48.126;11.546;2023-03-31T01:26:26;10.10;99.90
9179;DHT22;4624;48.126;11.546;2023-03-31T01:29:03;10.10;99.90
9179;DHT22;4624;48.126;11.546;2023-03-31T01:31:51;10.10;99.90
9179;DHT22;4624;48.126;11.546;2023-03-31T01:37:59;10.10;99.90
9179;DHT22;4624;48.126;11.546;2023-03-31T01:40:47;10.10;99.90
9179;DHT22;4624;48.126;11.546;2023-03-31T01:43:22;10.00;99.90
9179;DHT22;4624;48.126;11.546;2023-03-31T01:45:56;10.00;99.90
9179;DHT22;4624;48.126;11.546;2023-03-31T01:48:34;10.00;99.90
9179;DHT22;4624;48.126;11.546;2023-03-31T01:51:05;10.00;99.90
9179;DHT22;4624;48.126;11.546;2023-03-31T01:53:37;9.90;99.90
9179;DHT22;4624;48.126;11.546;2023-03-31T01:56:12;10.00;99.90
9179;DHT22;4624;48.126;11.546;2023-03-31T01:58:42;9.90;99.90
9179;DHT22;4624;48.126;11.546;2023-03-31T02:01:15;10.00;99.90
9179;DHT22;4624;48.126;11.546;2023-03-31T02:03:45;10.00;99.90
9179;DHT22;4624;48.126;11.546;2023-03-31T02:06:18;10.00;99.90
9179;DHT22;4624;48.126;11.546;2023-03-31T02:08:49;10.00;99.90
9179;DHT22;4624;48.126;11.546;2023-03-31T02:11:20;10.00;99.90
9179;DHT22;4624;48.126;11.546;2023-03-31T02:13:50;10.00;99.90
9179;DHT22;4624;48.126;11.546;2023-03-31T02:16:21;10.00;99.90
9179;DHT22;4624;48.126;11.546;2023-03-31T02:18:52;10.00;99.90
9179;DHT22;4624;48.126;11.546;2023-03-31T02:21:27;10.00;99.90
9179;DHT22;4624;48.126;11.546;2023-03-31T02:23:55;10.00;99.90
9179;DHT22;4624;48.126;11.546;2023-03-31T02:26:27;10.00;99.90
9179;DHT22;4624;48.126;11.546;2023-03-31T02:28:55;10.00;99.90
9179;DHT22;4624;48.126;11.546;2023-03-31T02:31:27;9.90;99.90
9179;DHT22;4624;48.126;11.546;2023-03-31T02:33:55;10.00;99.90
9179;DHT22;4624;48.126;11.546;2023-03-31T02:36:23;10.00;99.90
9179;DHT22;4624;48.126;11.546;2023-03-31T02:38:52;10.10;99.90
9179;DHT22;4624;48.126;11.546;2023-03-31T02:41:21;10.10;99.90
9179;DHT22;4624;48.126;11.546;2023-03-31T02:43:49;10.00;99.90
9179;DHT22;4624;48.126;11.546;2023-03-31T02:46:16;10.00;99.90
9179;DHT22;4624;48.126;11.546;2023-03-31T02:48:44;10.00;99.90
9179;DHT22;4624;48.126;11.546;2023-03-31T02:57:44;9.80;99.90
9179;DHT22;4624;48.126;11.546;2023-03-31T03:00:21;9.80;99.90
9179;DHT22;4624;48.126;11.546;2023-03-31T03:03:04;9.80;99.90
9179;DHT22;4624;48.126;11.546;2023-03-31T03:05:40;9.90;99.90
9179;DHT22;4624;48.126;11.546;2023-03-31T03:08:17;9.90;99.90
9179;DHT22;4624;48.126;11.546;2023-03-31T03:10:59;10.00;99.90
9179;DHT22;4624;48.126;11.546;2023-03-31T03:13:32;10.00;99.90
9179;DHT22;4624;48.126;11.546;2023-03-31T03:16:04;10.00;99.90
9179;DHT22;4624;48.126;11.546;2023-03-31T03:18:33;10.00;99.90
9179;DHT22;4624;48.126;11.546;2023-03-31T03:21:00;10.00;99.90
9179;DHT22;4624;48.126;11.546;2023-03-31T03:23:27;10.00;99.90
9179;DHT22;4624;48.126;11.546;2023-03-31T03:25:54;10.00;99.90
9179;DHT22;4624;48.126;11.546;2023-03-31T03:28:22;9.90;99.90
9179;DHT22;4624;48.126;11.546;2023-03-31T03:30:49;9.80;99.90
9179;DHT22;4624;48.126;11.546;2023-03-31T03:33:17;9.80;99.90
9179;DHT22;4624;48.126;11.546;2023-03-31T03:35:43;9.80;99.90
9179;DHT22;4624;48.126;11.546;2023-03-31T03:38:10;9.70;99.90
9179;DHT22;4624;48.126;11.546;2023-03-31T03:40:37;9.70;99.90
9179;DHT22;4624;48.126;11.546;2023-03-31T03:43:04;9.60;99.90
9179;DHT22;4624;48.126;11.546;2023-03-31T03:45:30;9.50;99.90
9179;DHT22;4624;48.126;11.546;2023-03-31T03:47:57;9.50;99.90
9179;DHT22;4624;48.126;11.546;2023-03-31T03:50:25;9.50;99.90
9179;DHT22;4624;48.126;11.546;2023-03-31T03:52:52;9.50;99.90
9179;DHT22;4624;48.126;11.546;2023-03-31T03:55:19;9.50;99.90
9179;DHT22;4624;48.126;11.546;2023-03-31T03:57:45;9.50;99.90
9179;DHT22;4624;48.126;11.546;2023-03-31T04:00:12;9.50;99.90
9179;DHT22;4624;48.126;11.546;2023-03-31T04:02:39;9.50;99.90
9179;DHT22;4624;48.126;11.546;2023-03-31T04:05:06;9.50;99.90
9179;DHT22;4624;48.126;11.546;2023-03-31T04:07:35;9.60;99.90
9179;DHT22;4624;48.126;11.546;2023-03-31T04:10:01;9.60;99.90
9179;DHT22;4624;48.126;11.546;2023-03-31T04:12:28;9.50;99.90
9179;DHT22;4624;48.126;11.546;2023-03-31T04:14:55;9.50;99.90
9179;DHT22;4624;48.126;11.546;2023-03-31T04:17:22;9.50;99.90
9179;DHT22;4624;48.126;11.546;2023-03-31T04:19:57;9.50;99.90
9179;DHT22;4624;48.126;11.546;2023-03-31T04:22:26;9.60;99.90
9179;DHT22;4624;48.126;11.546;2023-03-31T04:24:54;9.60;99.90
9179;DHT22;4624;48.126;11.546;2023-03-31T04:27:23;9.70;99.90
9179;DHT22;4624;48.126;11.546;2023-03-31T04:29:51;9.60;99.90
9179;DHT22;4624;48.126;11.546;2023-03-31T04:32:19;9.70;99.90
9179;DHT22;4624;48.126;11.546;2023-03-31T04:34:46;9.70;99.90
9179;DHT22;4624;48.126;11.546;2023-03-31T04:37:15;9.70;99.90
9179;DHT22;4624;48.126;11.546;2023-03-31T04:39:42;9.70;99.90
9179;DHT22;4624;48.126;11.546;2023-03-31T04:42:12;9.70;99.90
9179;DHT22;4624;48.126;11.546;2023-03-31T04:44:39;9.70;99.90
9179;DHT22;4624;48.126;11.546;2023-03-31T04:47:06;9.70;99.90
9179;DHT22;4624;48.126;11.546;2023-03-31T04:49:32;9.70;99.90
9179;DHT22;4624;48.126;11.546;2023-03-31T04:52:00;9.60;99.90
9179;DHT22;4624;48.126;11.546;2023-03-31T04:54:27;9.70;99.90
9179;DHT22;4624;48.126;11.546;2023-03-31T04:56:54;9.60;99.90
9179;DHT22;4624;48.126;11.546;2023-03-31T04:59:22;9.70;99.90
9179;DHT22;4624;48.126;11.546;2023-03-31T05:01:49;9.70;99.90
9179;DHT22;4624;48.126;11.546;2023-03-31T05:04:15;9.60;99.90
9179;DHT22;4624;48.126;11.546;2023-03-31T05:06:42;9.50;99.90
9179;DHT22;4624;48.126;11.546;2023-03-31T05:09:09;9.50;99.90
9179;DHT22;4624;48.126;11.546;2023-03-31T05:11:36;9.50;99.90
9179;DHT22;4624;48.126;11.546;2023-03-31T05:14:03;9.50;99.90
9179;DHT22;4624;48.126;11.546;2023-03-31T05:16:31;9.40;99.90
9179;DHT22;4624;48.126;11.546;2023-03-31T05:18:58;9.40;99.90
9179;DHT22;4624;48.126;11.546;2023-03-31T05:21:25;9.40;99.90
9179;DHT22;4624;48.126;11.546;2023-03-31T05:23:54;9.40;99.90
9179;DHT22;4624;48.126;11.546;2023-03-31T05:26:21;9.40;99.90
9179;DHT22;4624;48.126;11.546;2023-03-31T05:28:49;9.40;99.90
9179;DHT22;4624;48.126;11.546;2023-03-31T05:31:16;9.40;99.90
9179;DHT22;4624;48.126;11.546;2023-03-31T05:33:44;9.30;99.90
9179;DHT22;4624;48.126;11.546;2023-03-31T05:36:13;9.30;99.90
9179;DHT22;4624;48.126;11.546;2023-03-31T05:38:41;9.30;99.90
9179;DHT22;4624;48.126;11.546;2023-03-31T05:41:09;9.30;99.90
9179;DHT22;4624;48.126;11.546;2023-03-31T05:43:37;9.40;99.90
9179;DHT22;4624;48.126;11.546;2023-03-31T05:46:04;9.30;99.90
9179;DHT22;4624;48.126;11.546;2023-03-31T05:48:31;9.30;99.90
9179;DHT22;4624;48.126;11.546;2023-03-31T05:51:00;9.30;99.90
9179;DHT22;4624;48.126;11.546;2023-03-31T05:53:28;9.50;99.90
9179;DHT22;4624;48.126;11.546;2023-03-31T05:55:58;9.50;99.90
9179;DHT22;4624;48.126;11.546;2023-03-31T05:58:26;9.50;99.90
9179;DHT22;4624;48.126;11.546;2023-03-31T06:01:00;9.60;99.90
9179;DHT22;4624;48.126;11.546;2023-03-31T06:03:30;9.60;99.90
9179;DHT22;4624;48.126;11.546;2023-03-31T06:05:57;9.60;99.90
9179;DHT22;4624;48.126;11.546;2023-03-31T06:08:25;9.60;99.90
9179;DHT22;4624;48.126;11.546;2023-03-31T06:10:52;9.70;99.90
9179;DHT22;4624;48.126;11.546;2023-03-31T06:13:19;9.70;99.90
9179;DHT22;4624;48.126;11.546;2023-03-31T06:15:52;9.80;99.90
9179;DHT22;4624;48.126;11.546;2023-03-31T06:18:19;9.90;99.90
9179;DHT22;4624;48.126;11.546;2023-03-31T06:20:46;9.90;99.90
9179;DHT22;4624;48.126;11.546;2023-03-31T06:23:12;9.90;99.90
9179;DHT22;4624;48.126;11.546;2023-03-31T06:25:40;10.00;99.90
9179;DHT22;4624;48.126;11.546;2023-03-31T06:28:07;10.00;99.90
9179;DHT22;4624;48.126;11.546;2023-03-31T06:30:34;9.90;99.90
9179;DHT22;4624;48.126;11.546;2023-03-31T06:33:01;9.90;99.90
9179;DHT22;4624;48.126;11.546;2023-03-31T06:35:28;9.90;99.90
9179;DHT22;4624;48.126;11.546;2023-03-31T06:37:55;9.90;99.90
9179;DHT22;4624;48.126;11.546;2023-03-31T06:40:22;10.00;99.90
9179;DHT22;4624;48.126;11.546;2023-03-31T06:42:50;10.00;99.90
9179;DHT22;4624;48.126;11.546;2023-03-31T06:45:17;10.10;99.90
9179;DHT22;4624;48.126;11.546;2023-03-31T06:47:44;10.10;99.90
9179;DHT22;4624;48.126;11.546;2023-03-31T06:50:10;10.20;99.90
9179;DHT22;4624;48.126;11.546;2023-03-31T06:52:37;10.30;99.90
9179;DHT22;4624;48.126;11.546;2023-03-31T06:55:05;10.40;99.90
9179;DHT22;4624;48.126;11.546;2023-03-31T06:57:34;10.40;99.90
9179;DHT22;4624;48.126;11.546;2023-03-31T07:00:02;10.40;99.90
9179;DHT22;4624;48.126;11.546;2023-03-31T07:02:30;10.40;99.90
9179;DHT22;4624;48.126;11.546;2023-03-31T07:04:56;10.40;99.90
9179;DHT22;4624;48.126;11.546;2023-03-31T07:07:23;10.40;99.90
9179;DHT22;4624;48.126;11.546;2023-03-31T07:09:50;10.30;99.90
9179;DHT22;4624;48.126;11.546;2023-03-31T07:12:17;10.30;99.90
9179;DHT22;4624;48.126;11.546;2023-03-31T07:14:45;10.30;99.90
9179;DHT22;4624;48.126;11.546;2023-03-31T07:17:13;10.20;99.90
9179;DHT22;4624;48.126;11.546;2023-03-31T07:19:39;10.10;99.90
9179;DHT22;4624;48.126;11.546;2023-03-31T07:22:06;10.10;99.90
9179;DHT22;4624;48.126;11.546;2023-03-31T07:24:33;10.10;99.90
9179;DHT22;4624;48.126;11.546;2023-03-31T07:27:00;10.00;99.90
9179;DHT22;4624;48.126;11.546;2023-03-31T07:29:26;10.00;99.90
9179;DHT22;4624;48.126;11.546;2023-03-31T07:31:53;10.10;99.90
9179;DHT22;4624;48.126;11.546;2023-03-31T07:34:21;10.10;99.90
9179;DHT22;4624;48.126;11.546;2023-03-31T07:36:48;10.10;99.90
9179;DHT22;4624;48.126;11.546;2023-03-31T07:39:16;10.10;99.90
9179;DHT22;4624;48.126;11.546;2023-03-31T07:41:43;10.10;99.90
9179;DHT22;4624;48.126;11.546;2023-03-31T07:44:10;10.10;99.90
9179;DHT22;4624;48.126;11.546;2023-03-31T07:46:36;10.00;99.90
9179;DHT22;4624;48.126;11.546;2023-03-31T07:49:03;10.00;99.90
9179;DHT22;4624;48.126;11.546;2023-03-31T07:51:32;10.10;99.90
9179;DHT22;4624;48.126;11.546;2023-03-31T07:53:59;10.10;99.90
9179;DHT22;4624;48.126;11.546;2023-03-31T07:56:26;10.10;99.90
9179;DHT22;4624;48.126;11.546;2023-03-31T07:58:53;10.10;99.90
9179;DHT22;4624;48.126;11.546;2023-03-31T08:01:20;10.20;99.90
9179;DHT22;4624;48.126;11.546;2023-03-31T08:03:50;10.30;99.90
9179;DHT22;4624;48.126;11.546;2023-03-31T08:06:19;10.30;99.90
9179;DHT22;4624;48.126;11.546;2023-03-31T08:08:47;10.40;99.90
9179;DHT22;4624;48.126;11.546;2023-03-31T08:11:14;10.40;99.90
9179;DHT22;4624;48.126;11.546;2023-03-31T08:13:41;10.50;99.90
9179;DHT22;4624;48.126;11.546;2023-03-31T08:16:08;10.60;99.90
9179;DHT22;4624;48.126;11.546;2023-03-31T08:18:34;10.50;99.90
9179;DHT22;4624;48.126;11.546;2023-03-31T08:21:01;10.50;99.90
9179;DHT22;4624;48.126;11.546;2023-03-31T08:23:28;10.40;99.90
9179;DHT22;4624;48.126;11.546;2023-03-31T08:26:06;10.40;99.90
9179;DHT22;4624;48.126;11.546;2023-03-31T08:28:33;10.30;99.90
9179;DHT22;4624;48.126;11.546;2023-03-31T08:31:02;10.40;99.90
9179;DHT22;4624;48.126;11.546;2023-03-31T08:33:30;10.40;99.90
9179;DHT22;4624;48.126;11.546;2023-03-31T08:36:01;10.40;99.90
9179;DHT22;4624;48.126;11.546;2023-03-31T08:38:28;10.40;99.90
9179;DHT22;4624;48.126;11.546;2023-03-31T08:40:59;10.40;99.90
9179;DHT22;4624;48.126;11.546;2023-03-31T08:43:29;10.40;99.90
9179;DHT22;4624;48.126;11.546;2023-03-31T08:45:57;10.30;99.90
9179;DHT22;4624;48.126;11.546;2023-03-31T08:48:26;10.30;99.90
9179;DHT22;4624;48.126;11.546;2023-03-31T08:50:57;10.20;99.90
9179;DHT22;4624;48.126;11.546;2023-03-31T08:53:28;10.10;99.90
9179;DHT22;4624;48.126;11.546;2023-03-31T08:55:56;10.10;99.90
9179;DHT22;4624;48.126;11.546;2023-03-31T08:58:34;10.30;99.90
9179;DHT22;4624;48.126;11.546;2023-03-31T09:01:07;10.40;99.90
9179;DHT22;4624;48.126;11.546;2023-03-31T09:03:39;10.60;99.90
9179;DHT22;4624;48.126;11.546;2023-03-31T09:06:11;10.70;99.90
9179;DHT22;4624;48.126;11.546;2023-03-31T09:08:41;10.80;99.90
9179;DHT22;4624;48.126;11.546;2023-03-31T09:11:14;11.00;99.90
9179;DHT22;4624;48.126;11.546;2023-03-31T09:14:21;11.10;99.90
9179;DHT22;4624;48.126;11.546;2023-03-31T09:16:56;11.10;99.90
9179;DHT22;4624;48.126;11.546;2023-03-31T09:19:32;11.10;99.90
9179;DHT22;4624;48.126;11.546;2023-03-31T09:22:02;11.20;99.90
9179;DHT22;4624;48.126;11.546;2023-03-31T09:24:31;11.30;99.90
9179;DHT22;4624;48.126;11.546;2023-03-31T09:27:00;11.50;99.90
9179;DHT22;4624;48.126;11.546;2023-03-31T09:29:32;12.10;99.90
9179;DHT22;4624;48.126;11.546;2023-03-31T09:32:13;13.40;99.90
9179;DHT22;4624;48.126;11.546;2023-03-31T09:34:41;14.50;99.90
9179;DHT22;4624;48.126;11.546;2023-03-31T09:37:08;15.60;99.90
9179;DHT22;4624;48.126;11.546;2023-03-31T09:39:36;16.20;99.90
9179;DHT22;4624;48.126;11.546;2023-03-31T09:42:03;16.50;99.30
9179;DHT22;4624;48.126;11.546;2023-03-31T09:44:37;16.70;98.40
9179;DHT22;4624;48.126;11.546;2023-03-31T09:47:05;16.90;97.90
9179;DHT22;4624;48.126;11.546;2023-03-31T09:49:36;17.80;96.40
9179;DHT22;4624;48.126;11.546;2023-03-31T09:52:05;18.10;94.60
9179;DHT22;4624;48.126;11.546;2023-03-31T09:54:38;18.30;94.50
9179;DHT22;4624;48.126;11.546;2023-03-31T09:57:14;18.30;93.30
9179;DHT22;4624;48.126;11.546;2023-03-31T09:59:42;17.80;93.10
9179;DHT22;4624;48.126;11.546;2023-03-31T10:02:28;17.70;92.40
9179;DHT22;4624;48.126;11.546;2023-03-31T10:04:59;17.70;92.40
9179;DHT22;4624;48.126;11.546;2023-03-31T10:07:26;17.70;92.40
9179;DHT22;4624;48.126;11.546;2023-03-31T10:09:53;17.30;91.90
9179;DHT22;4624;48.126;11.546;2023-03-31T10:12:23;16.90;91.80
9179;DHT22;4624;48.126;11.546;2023-03-31T10:14:59;17.10;91.80
9179;DHT22;4624;48.126;11.546;2023-03-31T10:17:27;18.00;90.80
9179;DHT22;4624;48.126;11.546;2023-03-31T10:19:56;18.10;89.00
9179;DHT22;4624;48.126;11.546;2023-03-31T10:22:28;18.90;89.00
9179;DHT22;4624;48.126;11.546;2023-03-31T10:25:08;19.60;86.80
9179;DHT22;4624;48.126;11.546;2023-03-31T10:27:38;19.60;86.80
9179;DHT22;4624;48.126;11.546;2023-03-31T10:30:11;18.70;86.30
9179;DHT22;4624;48.126;11.546;2023-03-31T10:32:43;17.80;88.60
9179;DHT22;4624;48.126;11.546;2023-03-31T10:35:20;17.60;89.90
9179;DHT22;4624;48.126;11.546;2023-03-31T10:37:48;18.40;89.00
9179;DHT22;4624;48.126;11.546;2023-03-31T10:40:20;19.60;85.00
9179;DHT22;4624;48.126;11.546;2023-03-31T10:42:57;20.30;83.10
9179;DHT22;4624;48.126;11.546;2023-03-31T10:45:27;20.40;80.30
9179;DHT22;4624;48.126;11.546;2023-03-31T10:47:56;19.80;80.80
9179;DHT22;4624;48.126;11.546;2023-03-31T10:50:27;19.30;81.80
9179;DHT22;4624;48.126;11.546;2023-03-31T10:53:00;18.60;83.00
9179;DHT22;4624;48.126;11.546;2023-03-31T10:55:33;17.90;84.20
9179;DHT22;4624;48.126;11.546;2023-03-31T10:58:08;17.30;86.10
9179;DHT22;4624;48.126;11.546;2023-03-31T11:00:50;16.90;87.70
9179;DHT22;4624;48.126;11.546;2023-03-31T11:04:01;17.10;88.70
9179;DHT22;4624;48.126;11.546;2023-03-31T11:06:38;16.80;88.30
9179;DHT22;4624;48.126;11.546;2023-03-31T11:09:19;16.10;89.30
9179;DHT22;4624;48.126;11.546;2023-03-31T11:11:57;15.50;90.20
9179;DHT22;4624;48.126;11.546;2023-03-31T11:14:34;15.00;90.70
9179;DHT22;4624;48.126;11.546;2023-03-31T11:17:17;14.70;91.50
9179;DHT22;4624;48.126;11.546;2023-03-31T11:19:53;14.40;92.20
9179;DHT22;4624;48.126;11.546;2023-03-31T11:22:29;14.10;92.90
9179;DHT22;4624;48.126;11.546;2023-03-31T11:25:15;13.80;93.30
9179;DHT22;4624;48.126;11.546;2023-03-31T11:28:19;13.50;94.50
9179;DHT22;4624;48.126;11.546;2023-03-31T11:30:55;12.90;94.60
9179;DHT22;4624;48.126;11.546;2023-03-31T11:33:40;12.40;94.40
9179;DHT22;4624;48.126;11.546;2023-03-31T11:36:19;12.00;95.60
9179;DHT22;4624;48.126;11.546;2023-03-31T11:38:58;11.70;96.10
9179;DHT22;4624;48.126;11.546;2023-03-31T11:41:33;11.60;96.70
9179;DHT22;4624;48.126;11.546;2023-03-31T11:44:02;11.50;97.10
9179;DHT22;4624;48.126;11.546;2023-03-31T11:46:34;11.50;97.60
9179;DHT22;4624;48.126;11.546;2023-03-31T11:49:10;11.50;98.00
9179;DHT22;4624;48.126;11.546;2023-03-31T11:51:46;11.60;98.20
9179;DHT22;4624;48.126;11.546;2023-03-31T11:54:17;11.60;98.50
9179;DHT22;4624;48.126;11.546;2023-03-31T11:56:45;11.50;98.60
9179;DHT22;4624;48.126;11.546;2023-03-31T11:59:15;11.50;98.90
9179;DHT22;4624;48.126;11.546;2023-03-31T12:01:47;11.60;98.90
9179;DHT22;4624;48.126;11.546;2023-03-31T12:04:24;11.70;99.00
9179;DHT22;4624;48.126;11.546;2023-03-31T12:06:58;12.00;99.00
9179;DHT22;4624;48.126;11.546;2023-03-31T12:09:30;12.30;98.80
9179;DHT22;4624;48.126;11.546;2023-03-31T12:12:04;12.80;98.30
9179;DHT22;4624;48.126;11.546;2023-03-31T12:14:35;13.90;96.90
9179;DHT22;4624;48.126;11.546;2023-03-31T12:17:10;14.60;95.90
9179;DHT22;4624;48.126;11.546;2023-03-31T12:19:45;15.30;94.90
9179;DHT22;4624;48.126;11.546;2023-03-31T12:22:17;16.50;93.10
9179;DHT22;4624;48.126;11.546;2023-03-31T12:24:46;16.70;92.30
9179;DHT22;4624;48.126;11.546;2023-03-31T12:27:16;16.00;92.20
9179;DHT22;4624;48.126;11.546;2023-03-31T12:29:50;15.20;93.00
9179;DHT22;4624;48.126;11.546;2023-03-31T12:32:22;14.70;93.40
9179;DHT22;4624;48.126;11.546;2023-03-31T12:34:58;14.60;93.80
9179;DHT22;4624;48.126;11.546;2023-03-31T12:37:46;14.60;94.00
9179;DHT22;4624;48.126;11.546;2023-03-31T12:40:26;14.50;93.90
9179;DHT22;4624;48.126;11.546;2023-03-31T12:43:16;14.20;94.10
9179;DHT22;4624;48.126;11.546;2023-03-31T12:45:49;13.90;93.60
9179;DHT22;4624;48.126;11.546;2023-03-31T12:48:36;13.70;94.00
9179;DHT22;4624;48.126;11.546;2023-03-31T12:51:16;13.50;94.20
9179;DHT22;4624;48.126;11.546;2023-03-31T12:53:58;13.40;94.60
9179;DHT22;4624;48.126;11.546;2023-03-31T12:56:25;13.30;94.50
9179;DHT22;4624;48.126;11.546;2023-03-31T12:58:52;13.20;94.80
9179;DHT22;4624;48.126;11.546;2023-03-31T13:01:19;13.30;94.90
9179;DHT22;4624;48.126;11.546;2023-03-31T13:04:08;13.50;94.80
9179;DHT22;4624;48.126;11.546;2023-03-31T13:06:50;13.70;93.40
9179;DHT22;4624;48.126;11.546;2023-03-31T13:09:37;13.60;92.80
9179;DHT22;4624;48.126;11.546;2023-03-31T13:12:07;13.60;90.70
9179;DHT22;4624;48.126;11.546;2023-03-31T13:14:36;13.40;85.50
9179;DHT22;4624;48.126;11.546;2023-03-31T13:17:12;13.20;84.30
9179;DHT22;4624;48.126;11.546;2023-03-31T13:19:40;13.10;81.90
9179;DHT22;4624;48.126;11.546;2023-03-31T13:22:27;13.10;82.20
9179;DHT22;4624;48.126;11.546;2023-03-31T13:25:25;13.00;82.00
9179;DHT22;4624;48.126;11.546;2023-03-31T13:27:53;12.80;83.90
9179;DHT22;4624;48.126;11.546;2023-03-31T13:30:49;12.70;84.30
9179;DHT22;4624;48.126;11.546;2023-03-31T13:33:19;12.70;84.70
9179;DHT22;4624;48.126;11.546;2023-03-31T13:35:50;12.70;84.80
9179;DHT22;4624;48.126;11.546;2023-03-31T13:38:25;12.80;85.80
9179;DHT22;4624;48.126;11.546;2023-03-31T13:41:11;12.70;84.70
9179;DHT22;4624;48.126;11.546;2023-03-31T13:43:53;12.90;85.00
9179;DHT22;4624;48.126;11.546;2023-03-31T13:46:37;13.10;85.80
9179;DHT22;4624;48.126;11.546;2023-03-31T13:49:24;13.30;85.60
9179;DHT22;4624;48.126;11.546;2023-03-31T13:51:58;13.30;84.90
9179;DHT22;4624;48.126;11.546;2023-03-31T13:57:34;13.60;83.80
9179;DHT22;4624;48.126;11.546;2023-03-31T14:00:20;13.70;82.70
9179;DHT22;4624;48.126;11.546;2023-03-31T14:02:59;13.80;81.40
9179;DHT22;4624;48.126;11.546;2023-03-31T14:05:34;13.90;81.40
9179;DHT22;4624;48.126;11.546;2023-03-31T14:08:06;13.80;81.60
9179;DHT22;4624;48.126;11.546;2023-03-31T14:10:39;13.80;81.60
9179;DHT22;4624;48.126;11.546;2023-03-31T14:13:09;13.60;81.40
9179;DHT22;4624;48.126;11.546;2023-03-31T14:15:38;13.50;81.80
9179;DHT22;4624;48.126;11.546;2023-03-31T14:18:06;13.40;83.20
9179;DHT22;4624;48.126;11.546;2023-03-31T14:20:41;13.30;82.60
9179;DHT22;4624;48.126;11.546;2023-03-31T14:23:19;13.30;83.30
9179;DHT22;4624;48.126;11.546;2023-03-31T14:25:54;13.20;83.70
9179;DHT22;4624;48.126;11.546;2023-03-31T14:28:47;13.10;84.30
9179;DHT22;4624;48.126;11.546;2023-03-31T14:31:21;13.10;84.80
9179;DHT22;4624;48.126;11.546;2023-03-31T14:34:09;12.90;85.70
9179;DHT22;4624;48.126;11.546;2023-03-31T14:36:46;12.80;86.20
9179;DHT22;4624;48.126;11.546;2023-03-31T14:39:19;12.60;87.60
9179;DHT22;4624;48.126;11.546;2023-03-31T14:41:51;12.50;88.60
9179;DHT22;4624;48.126;11.546;2023-03-31T14:44:18;12.10;90.60
9179;DHT22;4624;48.126;11.546;2023-03-31T14:46:45;11.40;93.50
9179;DHT22;4624;48.126;11.546;2023-03-31T14:49:18;11.00;93.90
9179;DHT22;4624;48.126;11.546;2023-03-31T14:51:46;10.70;93.10
9179;DHT22;4624;48.126;11.546;2023-03-31T14:54:15;10.60;93.10
9179;DHT22;4624;48.126;11.546;2023-03-31T14:56:44;10.60;93.30
9179;DHT22;4624;48.126;11.546;2023-03-31T14:59:17;10.60;93.40
9179;DHT22;4624;48.126;11.546;2023-03-31T15:01:48;10.60;93.80
9179;DHT22;4624;48.126;11.546;2023-03-31T15:04:18;10.60;94.00
9179;DHT22;4624;48.126;11.546;2023-03-31T15:06:46;10.60;94.00
9179;DHT22;4624;48.126;11.546;2023-03-31T15:09:18;10.70;94.20
9179;DHT22;4624;48.126;11.546;2023-03-31T15:11:45;11.00;94.30
9179;DHT22;4624;48.126;11.546;2023-03-31T15:14:14;11.20;94.30
9179;DHT22;4624;48.126;11.546;2023-03-31T15:16:42;11.30;94.10
9179;DHT22;4624;48.126;11.546;2023-03-31T15:19:13;11.30;93.70
9179;DHT22;4624;48.126;11.546;2023-03-31T15:21:41;11.30;93.30
9179;DHT22;4624;48.126;11.546;2023-03-31T15:24:11;11.30;93.00
9179;DHT22;4624;48.126;11.546;2023-03-31T15:26:41;11.40;92.80
9179;DHT22;4624;48.126;11.546;2023-03-31T15:29:16;11.50;92.10
9179;DHT22;4624;48.126;11.546;2023-03-31T15:31:44;11.60;91.80
9179;DHT22;4624;48.126;11.546;2023-03-31T15:34:13;11.70;91.50
9179;DHT22;4624;48.126;11.546;2023-03-31T15:36:41;11.80;91.40
9179;DHT22;4624;48.126;11.546;2023-03-31T15:39:09;11.90;91.10
9179;DHT22;4624;48.126;11.546;2023-03-31T15:41:37;11.90;90.80
9179;DHT22;4624;48.126;11.546;2023-03-31T15:44:05;11.90;90.80
9179;DHT22;4624;48.126;11.546;2023-03-31T15:46:56;11.90;90.60
9179;DHT22;4624;48.126;11.546;2023-03-31T15:49:25;11.90;90.60
9179;DHT22;4624;48.126;11.546;2023-03-31T15:51:53;11.80;90.70
9179;DHT22;4624;48.126;11.546;2023-03-31T15:54:41;11.90;90.60
9179;DHT22;4624;48.126;11.546;2023-03-31T15:57:08;11.80;90.80
9179;DHT22;4624;48.126;11.546;2023-03-31T15:59:45;11.80;90.80
9179;DHT22;4624;48.126;11.546;2023-03-31T16:02:20;11.90;90.60
9179;DHT22;4624;48.126;11.546;2023-03-31T16:04:49;11.90;90.60
9179;DHT22;4624;48.126;11.546;2023-03-31T16:07:24;11.90;90.60
9179;DHT22;4624;48.126;11.546;2023-03-31T16:09:55;11.90;90.40
9179;DHT22;4624;48.126;11.546;2023-03-31T16:12:29;11.90;90.40
9179;DHT22;4624;48.126;11.546;2023-03-31T16:15:00;12.00;90.30
9179;DHT22;4624;48.126;11.546;2023-03-31T16:17:32;12.00;90.00
9179;DHT22;4624;48.126;11.546;2023-03-31T16:20:03;12.10;89.50
9179;DHT22;4624;48.126;11.546;2023-03-31T16:22:36;12.10;89.20
9179;DHT22;4624;48.126;11.546;2023-03-31T16:25:09;12.10;88.90
9179;DHT22;4624;48.126;11.546;2023-03-31T16:27:39;12.20;89.20
9179;DHT22;4624;48.126;11.546;2023-03-31T16:30:10;12.20;89.10